Time;durP1;ratioP1;P1;durP2;ratioP2;P2;SDS_P1;SDS_P2;PMS_P1;PMS_P2;Temp;Humidity;BMP_temperature;BMP_pressure;BME280_temperature;BME280_humidity;BME280_pressure;Samples;Min_cycle;Max_cycle;Signal;HPM_P1;HPM_P2
2023/11/08 07:55:51;;;;;;;;;2.00;1.67;;;;;22.88;42.59;101177.34;4891581;28;45497;-74
2023/11/08 07:58:17;;;;;;;;;1.00;1.00;;;;;22.85;42.07;101177.69;4929241;28;45398;-75
2023/11/08 08:00:45;;;;;;;;;1.33;1.00;;;;;22.68;42.17;101139.84;4922723;28;45503;-75
2023/11/08 08:03:14;;;;;;;;;0.67;0.00;;;;;22.90;42.37;101171.88;4919357;28;47096;-75
2023/11/08 08:05:41;;;;;;;;;1.00;1.00;;;;;22.78;42.33;101161.66;4922910;28;45255;-76
2023/11/08 08:08:07;;;;;;;;;2.00;2.00;;;;;22.77;42.00;101144.09;4933381;28;45283;-73
2023/11/08 08:10:33;;;;;;;;;1.00;1.00;;;;;22.83;42.15;101158.47;4952799;28;45285;-73
2023/11/08 08:13:00;;;;;;;;;1.00;1.00;;;;;22.90;42.43;101163.91;4934467;28;45517;-73
2023/11/08 08:15:25;;;;;;;;;2.00;2.00;;;;;22.87;42.31;101157.13;4938075;28;45443;-74
2023/11/08 08:17:51;;;;;;;;;2.00;2.00;;;;;22.82;41.94;101147.03;4938362;28;45693;-73
2023/11/08 08:20:16;;;;;;;;;3.00;1.00;;;;;22.84;42.30;101153.00;4938285;28;45526;-73
2023/11/08 08:22:42;;;;;;;;;1.00;1.00;;;;;22.90;42.53;101153.31;4953119;28;48107;-73
2023/11/08 08:25:11;;;;;;;;;1.00;1.00;;;;;22.78;42.13;101140.44;4937856;28;45398;-73
2023/11/08 08:27:37;;;;;;;;;2.00;1.00;;;;;22.83;42.58;101140.75;4938329;28;45351;-73
2023/11/08 08:30:03;;;;;;;;;2.00;2.00;;;;;22.84;42.38;101137.09;4934253;28;45361;-73
2023/11/08 08:32:29;;;;;;;;;1.67;1.00;;;;;22.78;42.35;101136.97;4937293;28;47139;-74
2023/11/08 08:34:54;;;;;;;;;2.00;2.00;;;;;22.76;42.17;101121.25;4937703;28;45341;-73
2023/11/08 08:37:20;;;;;;;;;2.33;1.00;;;;;22.87;42.56;101135.91;4937994;28;45354;-73
2023/11/08 08:39:46;;;;;;;;;1.67;1.67;;;;;22.87;42.57;101138.56;4936525;28;45455;-73
2023/11/08 08:42:13;;;;;;;;;0.00;0.00;;;;;22.85;42.41;101136.06;4937765;28;45478;-74
2023/11/08 08:44:38;;;;;;;;;0.67;0.67;;;;;22.90;42.60;101137.38;4938046;28;45301;-74
2023/11/08 08:47:03;;;;;;;;;1.33;1.00;;;;;22.84;42.47;101133.59;4938286;28;45333;-74
2023/11/08 08:49:29;;;;;;;;;2.00;2.00;;;;;22.84;42.40;101133.59;4936327;28;45400;-73
2023/11/08 08:51:54;;;;;;;;;1.33;1.33;;;;;22.88;42.37;101142.84;4936388;28;46517;-74
2023/11/08 08:54:20;;;;;;;;;1.00;1.00;;;;;22.83;42.28;101132.78;4935679;28;45363;-73
2023/11/08 08:56:49;;;;;;;;;1.00;1.00;;;;;22.90;42.15;101129.44;4937492;28;45413;-73
2023/11/08 08:59:15;;;;;;;;;2.33;2.00;;;;;22.87;42.08;101135.91;4935984;28;45427;-74
2023/11/08 09:01:41;;;;;;;;;1.00;1.00;;;;;22.83;42.39;101126.66;4937610;28;47018;-74
2023/11/08 09:04:06;;;;;;;;;1.33;1.33;;;;;22.90;42.37;101127.56;4936550;28;45406;-74
2023/11/08 09:06:31;;;;;;;;;1.33;1.33;;;;;22.87;41.94;101117.34;4937641;28;45806;-73
2023/11/08 09:08:57;;;;;;;;;1.00;1.00;;;;;22.83;41.98;101102.78;4937154;28;45429;-73
2023/11/08 09:11:22;;;;;;;;;1.00;1.00;;;;;22.91;42.33;101118.63;4952237;28;47304;-74
2023/11/08 09:13:48;;;;;;;;;1.00;1.00;;;;;22.84;42.24;101097.31;4936153;28;45406;-74
2023/11/08 09:16:16;;;;;;;;;0.00;0.00;;;;;22.87;42.01;101105.91;4936431;28;45433;-73
2023/11/08 09:18:42;;;;;;;;;2.00;2.00;;;;;22.87;42.17;101108.56;4937463;28;45479;-73
2023/11/08 09:21:07;;;;;;;;;1.00;1.00;;;;;22.88;42.06;101116.31;4937793;28;46150;-74
2023/11/08 09:23:33;;;;;;;;;1.00;1.00;;;;;22.92;41.88;101116.81;4936841;28;45581;-73
2023/11/08 09:25:59;;;;;;;;;2.00;1.00;;;;;22.85;42.01;101098.09;4951928;28;45516;-74
2023/11/08 09:28:25;;;;;;;;;3.00;3.00;;;;;22.92;42.19;101107.00;4935789;28;45413;-74
2023/11/08 09:30:52;;;;;;;;;0.00;0.00;;;;;22.88;42.29;101104.88;4951249;28;46971;-73
2023/11/08 09:33:18;;;;;;;;;1.00;1.00;;;;;22.88;42.06;101095.09;4936165;28;45406;-74
2023/11/08 09:35:43;;;;;;;;;1.00;1.00;;;;;22.85;41.88;101087.50;4937350;28;45387;-73
2023/11/08 09:38:09;;;;;;;;;1.00;1.00;;;;;22.83;42.07;101085.03;4936368;28;45260;-73
2023/11/08 09:40:35;;;;;;;;;1.67;1.67;;;;;22.93;42.00;101105.16;4936878;28;45292;-73
2023/11/08 09:43:00;;;;;;;;;1.33;1.33;;;;;22.88;42.07;101097.75;4952131;28;45534;-74
2023/11/08 09:45:30;;;;;;;;;3.00;2.00;;;;;22.89;42.27;101083.50;4937208;28;45291;-73
2023/11/08 09:47:57;;;;;;;;;1.00;1.00;;;;;22.88;42.08;101086.31;4937034;28;45482;-73
2023/11/08 09:50:23;;;;;;;;;1.67;1.67;;;;;22.92;42.19;101093.75;4937060;28;46588;-74
2023/11/08 09:52:50;;;;;;;;;1.00;1.00;;;;;22.93;41.96;101095.38;4935035;28;45317;-73
2023/11/08 09:55:16;;;;;;;;;1.00;1.00;;;;;22.93;41.98;101094.56;4936864;28;45346;-73
2023/11/08 09:57:43;;;;;;;;;3.00;1.33;;;;;22.92;41.97;101090.25;4937246;28;45403;-74
2023/11/08 10:00:10;;;;;;;;;1.00;1.00;;;;;22.85;42.39;101075.06;4936327;28;46878;-73
2023/11/08 10:02:37;;;;;;;;;1.33;1.00;;;;;22.87;41.88;101074.91;4936685;28;45535;-73
2023/11/08 10:05:06;;;;;;;;;0.67;0.00;;;;;22.88;42.13;101068.56;4936987;28;45279;-74
2023/11/08 10:07:32;;;;;;;;;1.00;1.00;;;;;22.83;42.16;101066.47;4934622;28;45238;-74
2023/11/08 10:09:58;;;;;;;;;2.00;2.00;;;;;22.94;42.08;101074.97;4935226;28;45768;-73
2023/11/08 10:12:25;;;;;;;;;0.00;0.00;;;;;22.92;42.33;101059.25;4936734;28;45481;-73
2023/11/08 10:15:03;;;;;;;;;1.00;1.00;;;;;22.89;42.39;101058.78;4936891;28;45381;-74
2023/11/08 10:17:39;;;;;;;;;0.00;0.00;;;;;22.88;42.09;101047.34;4935447;28;45298;-74
2023/11/08 10:20:09;;;;;;;;;1.00;1.00;;;;;22.88;42.46;101043.84;4936626;28;45444;-73
2023/11/08 10:22:35;;;;;;;;;1.67;1.00;;;;;22.92;42.50;101058.44;4936007;28;45322;-73
2023/11/08 10:25:02;;;;;;;;;1.00;1.00;;;;;22.88;42.03;101049.16;4936454;28;45426;-74
2023/11/08 10:27:30;;;;;;;;;1.00;1.00;;;;;22.87;42.56;101042.22;4935216;28;45564;-73
2023/11/08 10:30:15;;;;;;;;;1.00;1.00;;;;;22.91;42.27;101040.84;4936925;28;45386;-73
2023/11/08 10:32:42;;;;;;;;;0.00;0.00;;;;;22.91;42.06;101032.88;4936280;28;45288;-74
2023/11/08 10:35:22;;;;;;;;;1.00;1.00;;;;;22.82;42.43;101022.34;4936738;28;45358;-73
2023/11/08 10:37:48;;;;;;;;;1.33;1.00;;;;;22.80;42.22;101000.50;4936617;28;45605;-73
2023/11/08 10:40:14;;;;;;;;;1.00;1.00;;;;;22.90;42.59;101018.00;4936629;28;46466;-76
2023/11/08 10:42:48;;;;;;;;;2.33;1.00;;;;;22.85;42.29;101008.72;4937360;28;45418;-76
2023/11/08 10:45:14;;;;;;;;;4.00;1.67;;;;;22.82;42.73;101003.78;4939021;28;45394;-76
2023/11/08 10:47:40;;;;;;;;;1.00;1.00;;;;;22.86;42.54;101006.91;4954568;28;45706;-76
2023/11/08 10:50:08;;;;;;;;;1.33;1.00;;;;;22.85;42.61;100995.47;4937930;28;46291;-76
2023/11/08 10:52:35;;;;;;;;;1.00;1.00;;;;;22.82;42.32;100987.88;4939511;28;45451;-76
2023/11/08 10:55:04;;;;;;;;;1.00;1.00;;;;;22.88;42.35;101002.25;4939677;28;45364;-76
2023/11/08 10:57:32;;;;;;;;;1.00;1.00;;;;;22.89;42.50;100992.47;4939266;28;45240;-76
2023/11/08 11:00:01;;;;;;;;;1.00;1.00;;;;;22.85;42.67;100982.22;4938062;28;47404;-76
2023/11/08 11:02:40;;;;;;;;;0.00;0.00;;;;;22.88;42.63;100980.19;4938095;28;45494;-76
2023/11/08 11:05:08;;;;;;;;;1.00;1.00;;;;;22.88;42.45;100975.72;4939306;28;45381;-75
2023/11/08 11:07:38;;;;;;;;;2.33;1.00;;;;;22.84;42.30;100962.00;4939550;28;45431;-76
2023/11/08 11:10:05;;;;;;;;;1.00;0.33;;;;;22.91;42.61;100971.88;4938983;28;45367;-76
2023/11/08 11:12:45;;;;;;;;;2.00;1.00;;;;;22.91;42.34;100961.25;4937501;28;45407;-76
2023/11/08 11:15:18;;;;;;;;;1.00;1.00;;;;;22.92;42.81;100968.22;4939240;28;45425;-76
2023/11/08 11:17:51;;;;;;;;;1.33;1.33;;;;;22.88;42.81;100951.84;4939526;28;45370;-76
2023/11/08 11:20:20;;;;;;;;;3.33;1.67;;;;;22.84;42.17;100935.47;4937237;28;46978;-73
2023/11/08 11:22:45;;;;;;;;;0.00;0.00;;;;;22.80;42.06;100931.53;4937980;28;45463;-77
2023/11/08 11:25:13;;;;;;;;;0.00;0.00;;;;;22.90;42.50;100949.00;4939708;28;45408;-76
2023/11/08 11:27:40;;;;;;;;;1.33;1.33;;;;;22.93;42.43;100945.97;4939500;28;45544;-77
2023/11/08 11:30:14;;;;;;;;;1.00;1.00;;;;;22.92;42.44;100934.56;4939217;28;45429;-76
2023/11/08 11:32:46;;;;;;;;;1.00;1.00;;;;;22.91;42.19;100937.38;4939037;28;45354;-77
2023/11/08 11:35:29;;;;;;;;;1.00;1.00;;;;;22.69;42.53;100900.16;4938982;28;45505;-76
2023/11/08 11:38:07;;;;;;;;;1.00;0.00;;;;;22.93;42.36;100938.00;4939366;28;45369;-77
2023/11/08 11:40:38;;;;;;;;;2.00;0.67;;;;;22.91;42.49;100922.28;4939736;28;46395;-77
2023/11/08 11:43:29;;;;;;;;;1.67;0.00;;;;;22.91;42.90;100930.25;4939382;28;45307;-77
2023/11/08 11:45:57;;;;;;;;;0.00;0.00;;;;;22.91;42.52;100922.28;4939787;28;45433;-77
2023/11/08 11:48:22;;;;;;;;;3.00;0.00;;;;;22.85;42.37;100907.94;4955627;28;45352;-77
2023/11/08 11:50:48;;;;;;;;;1.00;1.00;;;;;22.88;42.53;100912.03;4956002;28;46625;-77
2023/11/08 11:53:15;;;;;;;;;2.00;1.00;;;;;22.84;42.71;100903.66;4955708;28;45323;-77
2023/11/08 11:55:41;;;;;;;;;1.33;1.00;;;;;22.84;42.50;100889.56;4956012;28;45586;-77
2023/11/08 11:58:09;;;;;;;;;0.00;0.00;;;;;22.79;42.27;100876.03;4931021;28;45533;-76
2023/11/08 12:00:35;;;;;;;;;1.67;1.67;;;;;22.83;42.65;100882.59;4917229;28;45455;-77
2023/11/08 12:03:00;;;;;;;;;1.00;1.00;;;;;22.79;42.75;100868.91;4917175;28;45347;-77
2023/11/08 12:05:25;;;;;;;;;1.67;0.33;;;;;22.83;42.56;100878.13;4917845;28;45377;-77
2023/11/08 12:07:51;;;;;;;;;1.67;1.67;;;;;22.89;42.75;100881.03;4917651;28;45371;-77
2023/11/08 12:10:19;;;;;;;;;0.00;0.00;;;;;22.79;42.57;100862.75;4917174;28;47241;-77
2023/11/08 12:12:44;;;;;;;;;0.33;0.33;;;;;22.79;42.53;100855.63;4917649;28;45505;-77
2023/11/08 12:15:20;;;;;;;;;1.00;0.00;;;;;22.85;42.68;100860.19;4917200;28;45458;-77
2023/11/08 12:17:50;;;;;;;;;0.00;0.00;;;;;22.84;42.89;100852.41;4901059;28;45438;-76
2023/11/08 12:20:20;;;;;;;;;0.33;0.33;;;;;22.87;42.91;100846.75;4917049;28;46472;-76
2023/11/08 12:22:52;;;;;;;;;2.00;1.00;;;;;22.82;42.80;100834.00;4917936;28;45448;-77
2023/11/08 12:25:21;;;;;;;;;1.00;1.00;;;;;22.83;42.85;100827.72;4919361;28;45235;-77
2023/11/08 12:27:55;;;;;;;;;2.00;1.00;;;;;22.81;42.81;100827.09;4918804;28;45568;-77
2023/11/08 12:30:23;;;;;;;;;1.00;1.00;;;;;22.81;42.43;100829.72;4918953;28;46308;-76
2023/11/08 12:32:49;;;;;;;;;0.00;0.00;;;;;22.81;42.87;100823.59;4918946;28;45324;-77
2023/11/08 12:35:15;;;;;;;;;1.00;1.00;;;;;22.89;42.79;100822.66;4919077;28;45263;-77
2023/11/08 12:37:40;;;;;;;;;1.00;1.00;;;;;22.84;42.45;100821.41;4918151;28;45263;-76
2023/11/08 12:40:21;;;;;;;;;0.00;0.00;;;;;22.88;42.63;100816.53;4917995;28;47007;-77
2023/11/08 12:42:46;;;;;;;;;0.67;0.67;;;;;22.82;42.94;100804.84;4917946;28;45419;-77
2023/11/08 12:45:27;;;;;;;;;1.33;1.00;;;;;22.83;42.43;100797.69;4917870;28;45383;-77
2023/11/08 12:48:12;;;;;;;;;0.00;0.00;;;;;22.86;42.88;100797.34;4917831;28;45642;-73
2023/11/08 12:50:48;;;;;;;;;0.00;0.00;;;;;22.85;42.72;100793.84;4917639;28;45571;-75
2023/11/08 12:53:14;;;;;;;;;0.67;0.33;;;;;22.84;42.38;100791.41;4919145;28;45549;-74
2023/11/08 12:55:40;;;;;;;;;2.33;1.33;;;;;22.88;42.60;100790.00;4918479;28;45276;-73
2023/11/08 12:58:29;;;;;;;;;1.00;1.00;;;;;22.83;42.92;100779.97;4934831;28;45294;-73
2023/11/08 13:00:58;;;;;;;;;0.33;0.33;;;;;22.83;42.84;100779.13;4933808;28;46490;-73
2023/11/08 13:03:29;;;;;;;;;0.00;0.00;;;;;22.80;43.06;100769.72;4936195;28;45789;-74
2023/11/08 13:06:00;;;;;;;;;1.00;1.00;;;;;22.82;42.59;100765.03;4936715;28;45242;-73
2023/11/08 13:08:27;;;;;;;;;1.00;1.00;;;;;22.84;42.91;100759.56;4952630;28;45314;-74
2023/11/08 13:10:59;;;;;;;;;1.00;1.00;;;;;22.83;42.36;100749.97;4937491;28;47278;-73
2023/11/08 13:13:27;;;;;;;;;2.00;2.00;;;;;22.84;42.80;100747.13;4952260;28;45449;-74
2023/11/08 13:15:53;;;;;;;;;1.00;1.00;;;;;22.87;42.92;100753.06;4937033;28;45390;-73
2023/11/08 13:18:19;;;;;;;;;0.00;0.00;;;;;22.82;42.29;100740.38;4937718;28;45412;-74
2023/11/08 13:20:45;;;;;;;;;1.00;1.00;;;;;22.82;42.31;100733.22;4937454;28;46487;-73
2023/11/08 13:23:10;;;;;;;;;0.00;0.00;;;;;22.85;42.55;100743.47;4937397;28;45397;-74
2023/11/08 13:25:36;;;;;;;;;3.00;2.00;;;;;22.82;42.48;100727.13;4937549;28;45505;-73
2023/11/08 13:28:02;;;;;;;;;1.00;1.00;;;;;22.87;42.38;100726.53;4937522;28;45307;-73
2023/11/08 13:30:27;;;;;;;;;2.00;0.00;;;;;22.69;42.51;100686.13;4936563;28;46878;-73
2023/11/08 13:32:52;;;;;;;;;1.00;1.00;;;;;22.84;42.57;100699.38;4937416;28;45418;-73
2023/11/08 13:35:19;;;;;;;;;0.00;0.00;;;;;22.89;42.67;100708.59;4937309;28;45399;-73
2023/11/08 13:37:45;;;;;;;;;1.00;1.00;;;;;22.85;42.88;100701.00;4937655;28;45505;-73
2023/11/08 13:40:11;;;;;;;;;0.67;0.67;;;;;22.81;42.65;100693.63;4937073;28;46537;-73
2023/11/08 13:42:39;;;;;;;;;1.00;1.00;;;;;22.88;42.52;100699.81;4936899;28;45371;-72
2023/11/08 13:45:06;;;;;;;;;1.00;1.00;;;;;22.80;42.53;100687.50;4935790;28;45545;-73
2023/11/08 13:47:31;;;;;;;;;1.00;1.00;;;;;22.80;42.53;100682.19;4936109;28;45574;-72
2023/11/08 13:49:56;;;;;;;;;1.00;1.00;;;;;22.84;42.74;100690.59;4936731;28;45480;-73
2023/11/08 13:52:22;;;;;;;;;1.00;1.00;;;;;22.84;42.95;100680.00;4937290;28;45299;-73
2023/11/08 13:54:48;;;;;;;;;1.00;1.00;;;;;22.87;42.36;100684.94;4935621;28;45260;-73
2023/11/08 13:57:13;;;;;;;;;1.00;1.00;;;;;22.79;42.61;100680.56;4937127;28;45247;-73
2023/11/08 13:59:39;;;;;;;;;1.33;1.33;;;;;22.81;42.82;100683.84;4936429;28;46354;-73
2023/11/08 14:02:04;;;;;;;;;1.00;1.00;;;;;22.79;42.45;100675.25;4935720;28;45402;-73
2023/11/08 14:04:29;;;;;;;;;1.33;1.33;;;;;22.84;42.83;100675.50;4936883;28;45332;-74
2023/11/08 14:06:55;;;;;;;;;1.00;1.00;;;;;22.87;42.34;100670.84;4937020;28;45624;-73
2023/11/08 14:09:20;;;;;;;;;0.00;0.00;;;;;22.84;42.48;100661.44;4936875;28;45639;-73
2023/11/08 14:11:48;;;;;;;;;0.00;0.00;;;;;22.83;42.92;100659.78;4937100;28;45483;-73
2023/11/08 14:14:14;;;;;;;;;1.00;0.00;;;;;22.78;42.62;100639.13;4936381;28;45392;-74
2023/11/08 14:16:39;;;;;;;;;0.67;0.67;;;;;22.68;42.81;100622.69;4937538;28;45375;-73
2023/11/08 14:19:08;;;;;;;;;1.00;1.00;;;;;22.87;42.44;100647.78;4940548;28;45390;-74
2023/11/08 14:21:33;;;;;;;;;0.00;0.00;;;;;22.88;42.28;100649.41;4940230;28;45320;-74
2023/11/08 14:23:59;;;;;;;;;1.00;1.00;;;;;22.80;42.94;100642.41;4940016;28;45387;-74
2023/11/08 14:26:25;;;;;;;;;2.00;1.00;;;;;22.80;42.49;100628.31;4940235;28;45471;-74
2023/11/08 14:28:51;;;;;;;;;1.67;1.00;;;;;22.83;42.91;100634.06;4939822;28;48764;-73
2023/11/08 14:31:16;;;;;;;;;1.00;1.00;;;;;22.79;42.46;100624.88;4939976;28;45375;-73
2023/11/08 14:33:41;;;;;;;;;3.00;1.00;;;;;22.87;42.93;100626.56;4940100;28;45531;-73
2023/11/08 14:36:08;;;;;;;;;0.67;0.67;;;;;22.87;43.10;100628.38;4940200;28;45489;-73
2023/11/08 14:38:35;;;;;;;;;1.00;1.00;;;;;22.82;42.88;100618.38;4939895;28;45477;-73
2023/11/08 14:41:00;;;;;;;;;0.00;0.00;;;;;22.82;42.88;100607.75;4938375;28;45351;-72
2023/11/08 14:43:26;;;;;;;;;1.00;0.00;;;;;22.71;42.58;100583.38;4939569;28;45271;-73
2023/11/08 14:45:54;;;;;;;;;0.00;0.00;;;;;22.85;43.27;100607.34;4939931;28;45374;-73
2023/11/08 14:48:23;;;;;;;;;1.67;1.33;;;;;22.87;43.05;100594.72;4939703;28;46516;-73
2023/11/08 14:50:49;;;;;;;;;3.00;1.00;;;;;22.88;43.01;100598.19;4939733;28;45473;-73
2023/11/08 14:53:14;;;;;;;;;1.00;1.00;;;;;22.73;42.70;100564.63;4939626;28;45711;-73
2023/11/08 14:55:41;;;;;;;;;1.00;0.33;;;;;22.87;42.84;100583.28;4938612;28;45465;-72
2023/11/08 14:58:07;;;;;;;;;1.67;1.00;;;;;22.85;42.78;100579.00;4938901;28;46121;-73
2023/11/08 15:00:33;;;;;;;;;1.67;0.33;;;;;22.85;42.88;100573.69;4939261;28;45205;-73
2023/11/08 15:02:58;;;;;;;;;4.00;1.00;;;;;22.84;42.66;100581.84;4939795;28;45434;-73
2023/11/08 15:05:23;;;;;;;;;1.00;1.00;;;;;22.79;43.31;100566.50;4939359;28;45266;-73
2023/11/08 15:07:50;;;;;;;;;0.33;0.33;;;;;22.88;42.91;100576.97;4939347;28;46327;-73
2023/11/08 15:10:15;;;;;;;;;0.33;0.33;;;;;22.85;43.16;100564.91;4939315;28;45354;-73
2023/11/08 15:12:41;;;;;;;;;1.00;1.00;;;;;22.85;43.30;100562.25;4938944;28;45310;-73
2023/11/08 15:15:06;;;;;;;;;0.00;0.00;;;;;22.82;42.81;100567.97;4939670;28;45235;-73
2023/11/08 15:17:32;;;;;;;;;1.00;1.00;;;;;22.79;43.00;100557.72;4939055;28;45412;-73
2023/11/08 15:19:57;;;;;;;;;0.67;0.00;;;;;22.73;42.82;100552.19;4939523;28;45599;-74
2023/11/08 15:22:23;;;;;;;;;0.67;0.67;;;;;22.78;42.84;100548.94;4939628;28;45324;-73
2023/11/08 15:24:50;;;;;;;;;2.00;1.00;;;;;22.66;42.96;100521.28;4939069;28;45373;-73
2023/11/08 15:27:16;;;;;;;;;1.00;1.00;;;;;22.80;43.13;100536.31;4938838;28;45372;-74
2023/11/08 15:29:41;;;;;;;;;1.00;1.00;;;;;22.83;42.86;100540.41;4938615;28;45349;-73
2023/11/08 15:32:09;;;;;;;;;1.00;1.00;;;;;22.82;43.09;100546.75;4939257;28;45362;-73
2023/11/08 15:34:38;;;;;;;;;1.00;0.00;;;;;22.88;43.07;100547.78;4939547;28;45648;-72
2023/11/08 15:37:04;;;;;;;;;2.67;0.67;;;;;22.85;43.31;100538.38;4938945;28;46452;-72
2023/11/08 15:39:29;;;;;;;;;1.00;1.00;;;;;22.79;43.25;100526.72;4938707;28;45367;-73
2023/11/08 15:41:55;;;;;;;;;1.00;0.00;;;;;22.83;43.33;100529.81;4938684;28;45382;-73
2023/11/08 15:44:21;;;;;;;;;2.33;1.33;;;;;22.89;43.06;100538.81;4954045;28;45772;-73
2023/11/08 15:46:46;;;;;;;;;1.00;1.00;;;;;22.86;43.37;100534.72;4939044;28;47367;-73
2023/11/08 15:49:16;;;;;;;;;3.00;1.00;;;;;22.87;42.83;100533.72;4938928;28;45473;-73
2023/11/08 15:51:41;;;;;;;;;2.00;1.00;;;;;22.83;43.17;100516.53;4939008;28;45356;-73
2023/11/08 15:54:08;;;;;;;;;0.00;0.00;;;;;22.81;42.96;100505.31;4939301;28;45625;-74
2023/11/08 15:56:33;;;;;;;;;0.00;0.00;;;;;22.80;43.59;100499.19;4938376;28;46576;-73
2023/11/08 15:58:59;;;;;;;;;0.00;0.00;;;;;22.84;43.09;100499.63;4938474;28;45323;-73
2023/11/08 16:01:24;;;;;;;;;1.00;1.00;;;;;22.84;43.39;100499.63;4937927;28;45308;-75
2023/11/08 16:03:51;;;;;;;;;1.00;1.00;;;;;22.85;43.13;100480.03;4938086;28;45279;-74
2023/11/08 16:06:18;;;;;;;;;2.00;1.00;;;;;22.87;43.23;100488.63;4938265;28;46670;-74
2023/11/08 16:08:44;;;;;;;;;2.00;1.00;;;;;22.84;43.27;100473.09;4938499;28;45319;-74
2023/11/08 16:11:10;;;;;;;;;0.00;0.00;;;;;22.85;43.47;100480.84;4938314;28;45481;-74
2023/11/08 16:13:35;;;;;;;;;0.33;0.33;;;;;22.78;43.18;100466.72;4938470;28;45409;-74
2023/11/08 16:16:00;;;;;;;;;0.00;0.00;;;;;22.87;43.48;100463.94;4938253;28;45600;-75
2023/11/08 16:18:26;;;;;;;;;0.33;0.33;;;;;22.80;42.97;100458.56;4937023;28;45581;-75
2023/11/08 16:20:51;;;;;;;;;1.00;1.00;;;;;22.84;43.29;100468.63;4938499;28;45421;-74
2023/11/08 16:23:20;;;;;;;;;1.00;1.00;;;;;22.85;42.79;100469.41;4938389;28;45446;-75
2023/11/08 16:25:46;;;;;;;;;1.00;1.00;;;;;22.82;43.53;100465.31;4938337;28;45558;-74
2023/11/08 16:28:12;;;;;;;;;0.33;0.33;;;;;22.87;43.26;100472.72;4938104;28;45453;-72
2023/11/08 16:30:38;;;;;;;;;2.00;1.00;;;;;22.84;43.11;100463.31;4937054;28;45429;-71
2023/11/08 16:33:04;;;;;;;;;1.00;0.00;;;;;22.88;43.40;100457.59;4938385;28;45421;-71
2023/11/08 16:35:29;;;;;;;;;1.00;1.00;;;;;22.67;43.48;100430.09;4938086;28;46130;-72
2023/11/08 16:37:55;;;;;;;;;2.33;1.00;;;;;22.87;42.98;100462.09;4936580;28;45443;-72
2023/11/08 16:40:20;;;;;;;;;0.33;0.33;;;;;22.83;43.17;100452.88;4938106;28;45315;-72
2023/11/08 16:42:46;;;;;;;;;1.00;1.00;;;;;22.80;43.60;100446.13;4938282;28;45372;-72
2023/11/08 16:45:11;;;;;;;;;3.00;0.33;;;;;22.84;43.46;100438.63;4937887;28;45441;-72
2023/11/08 16:47:37;;;;;;;;;1.00;1.00;;;;;22.79;43.74;100433.91;4937383;28;45657;-72
2023/11/08 16:50:03;;;;;;;;;0.00;0.00;;;;;22.82;43.21;100438.00;4938117;28;45315;-72
2023/11/08 16:52:28;;;;;;;;;1.00;1.00;;;;;22.85;43.44;100441.06;4937762;28;45467;-72
2023/11/08 16:54:55;;;;;;;;;1.00;1.00;;;;;22.84;43.15;100434.13;4937422;28;46175;-72
2023/11/08 16:57:20;;;;;;;;;1.00;1.00;;;;;22.82;43.65;100432.69;4937654;28;45327;-72
2023/11/08 16:59:45;;;;;;;;;1.00;1.00;;;;;22.73;43.24;100419.59;4937831;28;45323;-72
2023/11/08 17:02:12;;;;;;;;;0.00;0.00;;;;;22.85;43.60;100426.97;4937924;28;45300;-72
2023/11/08 17:04:38;;;;;;;;;0.00;0.00;;;;;22.85;43.49;100440.22;4937579;28;46511;-72
2023/11/08 17:07:03;;;;;;;;;1.67;1.00;;;;;22.74;43.26;100421.19;4937539;28;45332;-72
2023/11/08 17:09:37;;;;;;;;;0.00;0.00;;;;;22.83;43.18;100437.78;4937932;28;45668;-72
2023/11/08 17:12:07;;;;;;;;;1.00;1.00;;;;;22.77;43.78;100427.94;4937735;28;45319;-72
2023/11/08 17:14:35;;;;;;;;;2.67;0.67;;;;;22.79;43.51;100438.38;4937626;28;46520;-72
2023/11/08 17:17:01;;;;;;;;;1.00;1.00;;;;;22.84;43.19;100435.97;4937819;28;45314;-72
2023/11/08 17:19:26;;;;;;;;;2.33;1.67;;;;;22.81;43.38;100431.03;4937546;28;45243;-72
2023/11/08 17:21:52;;;;;;;;;1.00;1.00;;;;;22.80;43.18;100432.88;4937434;28;45280;-73
2023/11/08 17:24:17;;;;;;;;;1.00;1.00;;;;;22.80;43.73;100424.91;4937276;28;45417;-72
2023/11/08 17:26:43;;;;;;;;;0.33;0.33;;;;;22.75;43.78;100406.13;4937563;28;45319;-72
2023/11/08 17:29:09;;;;;;;;;0.67;0.67;;;;;22.74;43.51;100396.53;4937630;28;45298;-72
2023/11/08 17:31:39;;;;;;;;;1.00;1.00;;;;;22.84;43.85;100428.84;4937273;28;45521;-73
2023/11/08 17:34:05;;;;;;;;;1.00;1.00;;;;;22.83;43.33;100416.56;4936207;28;46202;-72
2023/11/08 17:36:30;;;;;;;;;0.33;0.33;;;;;22.66;43.46;100394.84;4937262;28;45471;-73
2023/11/08 17:38:55;;;;;;;;;1.33;1.33;;;;;22.74;43.29;100401.84;4937826;28;45625;-73
2023/11/08 17:41:21;;;;;;;;;0.00;0.00;;;;;22.74;43.34;100401.84;4937827;28;45323;-74
2023/11/08 17:43:46;;;;;;;;;1.00;1.00;;;;;22.80;43.97;100406.34;4936136;28;48136;-74
2023/11/08 17:46:12;;;;;;;;;1.00;1.00;;;;;22.81;43.80;100396.56;4936211;28;45425;-73
2023/11/08 17:48:37;;;;;;;;;1.00;1.00;;;;;22.81;43.08;100404.53;4937404;28;45308;-74
2023/11/08 17:51:04;;;;;;;;;3.00;1.67;;;;;22.66;43.87;100376.28;4937125;28;45461;-73
2023/11/08 17:53:31;;;;;;;;;1.00;1.00;;;;;22.83;43.33;100408.63;4940482;28;45401;-74
2023/11/08 17:55:58;;;;;;;;;1.00;1.00;;;;;22.73;43.92;100385.09;4940659;28;45323;-73
2023/11/08 17:58:24;;;;;;;;;0.67;0.67;;;;;22.66;43.79;100365.66;4940880;28;45553;-74
2023/11/08 18:00:50;;;;;;;;;1.67;1.67;;;;;22.76;43.67;100389.19;4940659;28;45526;-73
2023/11/08 18:03:15;;;;;;;;;0.67;0.00;;;;;22.83;43.57;100397.19;4940332;28;47133;-73
2023/11/08 18:05:41;;;;;;;;;0.00;0.00;;;;;22.77;43.78;100390.81;4940225;28;45300;-74
2023/11/08 18:08:06;;;;;;;;;1.00;1.00;;;;;22.80;43.67;100394.91;4940700;28;45295;-73
2023/11/08 18:10:32;;;;;;;;;2.00;2.00;;;;;22.82;43.29;100392.91;4939390;28;45324;-74
2023/11/08 18:12:58;;;;;;;;;0.00;0.00;;;;;22.83;43.46;100397.19;4940250;28;45405;-74
2023/11/08 18:15:25;;;;;;;;;1.67;1.00;;;;;22.82;43.42;100383.09;4940510;28;45248;-74
2023/11/08 18:17:52;;;;;;;;;2.67;2.00;;;;;22.64;43.29;100354.41;4940518;28;45406;-74
2023/11/08 18:20:18;;;;;;;;;0.00;0.00;;;;;22.76;43.54;100370.63;4940103;28;45473;-74
2023/11/08 18:22:43;;;;;;;;;2.00;2.00;;;;;22.75;43.66;100361.03;4940020;28;46345;-74
2023/11/08 18:25:09;;;;;;;;;1.00;1.00;;;;;22.77;43.58;100364.28;4940430;28;45472;-74
2023/11/08 18:27:35;;;;;;;;;1.33;1.33;;;;;22.79;43.74;100366.78;4939045;28;45542;-73
2023/11/08 18:30:01;;;;;;;;;1.67;1.00;;;;;22.80;43.54;100361.25;4940098;28;45446;-73
2023/11/08 18:32:27;;;;;;;;;1.00;1.00;;;;;22.82;43.26;100364.53;4939949;28;46348;-73
2023/11/08 18:34:52;;;;;;;;;1.00;1.00;;;;;22.77;43.37;100353.69;4939711;28;45515;-74
2023/11/08 18:37:18;;;;;;;;;0.33;0.33;;;;;22.74;43.69;100346.94;4940330;28;45364;-74
2023/11/08 18:39:44;;;;;;;;;1.00;1.00;;;;;22.75;43.24;100342.47;4940274;28;45439;-74
2023/11/08 18:42:12;;;;;;;;;1.00;1.00;;;;;22.81;43.42;100351.47;4939306;28;46923;-74
2023/11/08 18:44:38;;;;;;;;;0.00;0.00;;;;;22.77;43.38;100337.78;4939948;28;45339;-74
2023/11/08 18:47:04;;;;;;;;;1.00;1.00;;;;;22.77;43.49;100348.38;4940059;28;45417;-74
2023/11/08 18:49:29;;;;;;;;;0.67;0.67;;;;;22.76;43.66;100328.19;4939782;28;45212;-75
2023/11/08 18:51:56;;;;;;;;;1.00;1.00;;;;;22.66;43.36;100319.75;4940139;28;45393;-73
2023/11/08 18:54:22;;;;;;;;;2.00;0.00;;;;;22.80;43.50;100325.97;4939615;28;45308;-74
2023/11/08 18:56:48;;;;;;;;;2.33;1.33;;;;;22.80;43.40;100328.59;4939700;28;45307;-74
2023/11/08 18:59:14;;;;;;;;;1.00;1.00;;;;;22.80;43.57;100315.34;4922642;28;45479;-74
2023/11/08 19:01:40;;;;;;;;;0.00;0.00;;;;;22.77;43.62;100311.25;4920537;28;46526;-73
2023/11/08 19:04:06;;;;;;;;;0.00;0.00;;;;;22.79;43.61;100322.50;4919535;28;45446;-73
2023/11/08 19:06:31;;;;;;;;;2.00;0.67;;;;;22.77;43.40;100307.81;4921242;28;45556;-74
2023/11/08 19:08:57;;;;;;;;;1.00;1.00;;;;;22.75;43.81;100308.00;4919182;28;45506;-75
2023/11/08 19:11:24;;;;;;;;;1.00;1.00;;;;;22.77;43.42;100302.50;4920222;28;46128;-75
2023/11/08 19:13:50;;;;;;;;;1.00;1.00;;;;;22.66;43.33;100287.94;4920627;28;45421;-74
2023/11/08 19:16:16;;;;;;;;;1.00;1.00;;;;;22.77;43.75;100297.22;4920558;28;45386;-73
2023/11/08 19:18:42;;;;;;;;;2.00;2.00;;;;;22.78;43.30;100298.81;4918595;28;45580;-73